AA793 / N282AY 7700 Squawk Report (15th of December, 2018)

Aircraft A332 Reg No. N282AY Age 9 years old
Model A330 Jet engines 2 First flight 06-11-09
Registered 08-04-15 Rollout 10-09 Delivered 25-11-09
Construction No. 1069 Line No. N/A Series 243
ADSHEX A2D580 Airline name American Airlines Owner Wells Fargo Trust Co NA Trustee
Airfield based Philadelphia International~PA~N First tracked 2017-07-13 11:42:00

Flight history for N282AY

Time Lat Lon Altitude Heading Speed Vertical Rate
2018-12-15 18:18:46 GMT 39.846039 -75.348480 1,100 75 131 -832
2018-12-15 18:18:27 GMT 39.842926 -75.363823 1,325 75 131 -704
2018-12-15 18:18:17 GMT 39.841644 -75.370750 1,425 75 130 -640
2018-12-15 18:18:01 GMT 39.839264 -75.382393 1,650 74 131 -1152
2018-12-15 18:17:53 GMT 39.837799 -75.388779 1,800 73 131 -768
2018-12-15 18:17:50 GMT 39.837296 -75.390930 1,850 73 131 -768
2018-12-15 18:17:45 GMT 39.836380 -75.395645 1,875 76 134 -320
2018-12-15 18:17:36 GMT 39.835217 -75.401978 1,900 76 137 128
2018-12-15 18:17:32 GMT 39.834656 -75.404907 1,900 76 139 -64
2018-12-15 18:17:26 GMT 39.833679 -75.410217 1,900 76 143 0
2018-12-15 18:17:23 GMT 39.833073 -75.413635 1,875 76 148 128
2018-12-15 18:17:19 GMT 39.832516 -75.416504 1,875 76 148 320
2018-12-15 18:17:13 GMT 39.831631 -75.421448 1,875 75 152 -256
2018-12-15 18:17:10 GMT 39.830841 -75.425446 1,875 74 158 64
2018-12-15 18:17:02 GMT 39.829258 -75.432617 1,825 73 172 -64
2018-12-15 18:16:59 GMT 39.828747 -75.434998 1,850 72 177 -320
2018-12-15 18:16:52 GMT 39.826977 -75.442688 1,925 75 178 -448
2018-12-15 18:16:49 GMT 39.826370 -75.445923 1,925 79 174 192
2018-12-15 18:16:40 GMT 39.826092 -75.455688 1,875 111 174 128
2018-12-15 18:16:37 GMT 39.826401 -75.457207 1,875 120 189 -64
2018-12-15 18:16:29 GMT 39.829285 -75.465927 1,875 115 177 -192
2018-12-15 18:16:25 GMT 39.831024 -75.470284 1,875 120 189 -64
2018-12-15 18:16:16 GMT 39.834797 -75.477661 1,850 129 202 256
2018-12-15 18:16:09 GMT 39.839779 -75.483521 1,850 148 216 128
2018-12-15 18:16:06 GMT 39.841965 -75.485229 1,850 153 219 0
2018-12-15 18:15:59 GMT 39.849365 -75.488708 1,875 171 227 -64
2018-12-15 18:15:54 GMT 39.853790 -75.489624 1,900 173 227 -64
2018-12-15 18:15:46 GMT 39.863800 -75.490883 1,900 175 230 -64
2018-12-15 18:15:38 GMT 39.871124 -75.491539 1,900 179 231 -128
2018-12-15 18:15:34 GMT 39.874969 -75.491760 1,900 179 231 -128
2018-12-15 18:15:28 GMT 39.882339 -75.491417 1,900 191 235 192
2018-12-15 18:15:24 GMT 39.887772 -75.490173 1,875 193 235 192
2018-12-15 18:15:14 GMT 39.896709 -75.484741 1,875 216 244 -128
2018-12-15 18:15:04 GMT 39.905930 -75.475159 1,900 221 244 -384
2018-12-15 18:14:56 GMT 39.912445 -75.467957 1,950 221 242 -320
2018-12-15 18:14:52 GMT 39.915482 -75.464554 2,525 221 240 -640
2018-12-15 18:14:41 GMT 39.925060 -75.453789 2,250 221 239 -1664
2018-12-15 18:14:30 GMT 39.933975 -75.443787 2,525 221 241 -1664
2018-12-15 18:14:24 GMT 39.939606 -75.437439 2,725 222 241 -1728
2018-12-15 18:14:21 GMT 39.942005 -75.434753 2,825 222 241 -1664
2018-12-15 18:14:14 GMT 39.948349 -75.427490 3,025 222 241 -1728
2018-12-15 18:14:10 GMT 39.951038 -75.424454 3,125 223 242 -1664
2018-12-15 18:14:05 GMT 39.955601 -75.418892 3,250 227 244 -1344
2018-12-15 18:13:59 GMT 39.959656 -75.412964 3,375 233 245 -1344
2018-12-15 18:13:50 GMT 39.964874 -75.399841 3,575 254 248 -1024
2018-12-15 18:13:44 GMT 39.966751 -75.390442 3,675 258 248 -768
2018-12-15 18:13:38 GMT 39.967751 -75.384560 3,725 258 249 -768
2018-12-15 18:13:31 GMT 39.969658 -75.373199 3,825 258 250 -704
2018-12-15 18:13:27 GMT 39.970634 -75.367210 3,850 258 251 -576
2018-12-15 18:13:21 GMT 39.972218 -75.357719 3,875 258 251 -64
2018-12-15 18:13:16 GMT 39.973244 -75.351540 3,900 258 251 -64
2018-12-15 18:13:08 GMT 39.975540 -75.337708 3,875 258 250 64
2018-12-15 18:13:00 GMT 39.977417 -75.326660 3,900 258 249 64
2018-12-15 18:12:54 GMT 39.978737 -75.318771 3,875 258 249 -64
2018-12-15 18:12:50 GMT 39.979843 -75.311951 3,900 258 249 0
2018-12-15 18:12:47 GMT 39.981171 -75.303833 3,875 259 250 0
2018-12-15 18:12:38 GMT 39.982834 -75.293861 3,875 259 251 0
2018-12-15 18:12:33 GMT 39.983826 -75.287720 3,875 259 251 0
2018-12-15 18:12:25 GMT 39.985950 -75.274323 3,875 259 252 64
2018-12-15 18:12:20 GMT 39.986847 -75.268982 3,875 259 252 0
2018-12-15 18:12:14 GMT 39.988510 -75.258408 3,875 259 252 128
2018-12-15 18:12:11 GMT 39.988998 -75.255554 3,875 259 252 0
2018-12-15 18:12:06 GMT 39.990463 -75.246521 3,900 259 251 -64
2018-12-15 18:12:02 GMT 39.991165 -75.242050 3,900 259 251 -64
2018-12-15 18:11:59 GMT 39.991837 -75.237610 3,900 260 250 64
2018-12-15 18:11:52 GMT 39.992981 -75.227135 3,900 264 250 64
2018-12-15 18:11:48 GMT 39.993027 -75.221893 3,900 280 248 -64
2018-12-15 18:11:42 GMT 39.991974 -75.212708 3,875 292 245 -128
2018-12-15 18:11:38 GMT 39.990608 -75.207413 3,900 299 243 -128
2018-12-15 18:11:33 GMT 39.986984 -75.198914 3,900 307 243 64
2018-12-15 18:11:28 GMT 39.978642 -75.188683 3,875 334 241 -64
2018-12-15 18:11:22 GMT 39.978642 -75.188683 3,875 334 241 0
2018-12-15 18:11:11 GMT 39.966797 -75.182373 3,850 345 247 320
2018-12-15 18:11:05 GMT 39.961140 -75.180321 3,800 345 255 768
2018-12-15 18:11:00 GMT 39.954483 -75.177917 3,750 345 257 960
2018-12-15 18:10:56 GMT 39.949921 -75.176323 3,625 345 260 1728
2018-12-15 18:10:53 GMT 39.947708 -75.175476 3,625 345 260 1728
2018-12-15 18:10:50 GMT 39.943497 -75.173950 3,500 345 258 2752
2018-12-15 18:10:46 GMT 39.938370 -75.172119 3,350 345 259 2368
2018-12-15 18:10:40 GMT 39.931904 -75.169769 3,050 345 257 2688
2018-12-15 18:10:29 GMT 39.919521 -75.165222 2,675 346 252 2048
2018-12-15 18:10:19 GMT 39.907230 -75.162842 2,400 0 235 1216
2018-12-15 18:10:07 GMT 39.896294 -75.165894 2,200 25 212 1088
2018-12-15 18:09:56 GMT 39.888424 -75.174072 2,050 64 182 512
2018-12-15 18:09:43 GMT 39.883301 -75.187683 1,925 68 170 768

Making use of Plane Finder data

You are free to use the raw flight data, aircraft information and images provided in this report for your own purposes provided the data is correctly attributed to Plane Finder. We ask that you please credit Plane Finder and link to planefinder.net in close proximity to the content.

Optionally one of the following logos (no smaller then 150x24px) can be used and must link to planefinder.net

Embedding the Plane Finder map

You are welcome to embed the Plane Finder playback map on your website to offer visitors a more interactive experience. We suggest using the following HTML code:

<iframe src="//planefinder.net/data/report/AA793-N282AY-7700-squawk-2018-12-15/map" width="800" height="600" seamless="seamless"></iframe>

Where our data comes from

Plane Finder has a global network of data feeds and antenna radars that receive data broadcast directly from aircraft. The primary technologies used are ADS-B and MLAT. We also show feeds from the FAA and a FLARM glider feed.

Click here to find out more about the Plane Finder network.

How we collect our data